x

Buoy I01 - Eastern Maine Shelf (44034) Wave Buoy

1:04am - Thu 28th Aug 2014 All times are EDT. -4 hours from GMT.

  • Sig Wave height 3.3ft
  • Peak Period 6s
  • Wind
    4mph
  • Sea Temp 58°f
  • Air Temp 61°f
  • Sea Pressure 1007.9mb
  • Buoy I01 - Eastern Maine Shelf
  • Buoy I01 - Eastern Maine Shelf

More Historic Weather Station data

Upgrade to MSW Pro to gain access to the past 30 days of data for over 8000 Wavebouys and Weather Stations around the globe.

Join Pro

Comparision Forecast

View Surf forecast
   
Thu 08/28 1:04am 3.5ft 6s 4
mph
1007.9mb 58f 61f
12:04am 3.5ft 6s 4 7 mph 1008.4mb 59f 61f
Wed 08/27 11:04pm 4ft 11s 4
mph
1008.8mb 59f 61f
10:04pm 5ft 5s 4 7 mph 1008.9mb 59f 61f
9:04pm 4ft 11s 4 7 mph 1009.1mb 59f 62f
8:04pm 3.5ft 5s 4
mph
1009.5mb 58f 61f
7:04pm 3.5ft 5s 2 4 mph 1009.1mb 58f 61f
6:04pm 3.5ft 5s 2 4 mph 1009.3mb 59f 63f
5:04pm 3.5ft 5s 4 7 mph 1009mb 59f 64f
4:04pm 3.5ft 5s 9
mph
1009.2mb 59f 63f
3:04pm 3.5ft 5s 4 7 mph 1009.6mb 58f 62f
2:04pm 3.5ft 6s 9 11 mph 1010.1mb 57f 62f
1:04pm 4ft 5s 13 16 mph 1010.4mb 57f 62f
12:04pm 3.5ft 6s 13 16 mph 1010.8mb 57f 61f
11:04am 4ft 6s 16 18 mph 1011.1mb 57f 61f
10:04am 4ft 6s 16 18 mph 1011.5mb 58f 62f
9:04am 4ft 5s 13 16 mph 1012.1mb 57f 61f
8:04am 4ft 5s 13 16 mph 1012.2mb 58f 61f
7:04am 4ft 5s 9 13 mph 1012.5mb 58f 61f
6:04am 4ft 5s 11 13 mph 1012.6mb 58f 61f
5:04am 3.5ft 5s 13 16 mph 1012.5mb 57f 61f
4:04am 3.5ft 5s 11 13 mph 1012.8mb 57f 60f
3:04am 4.5ft 5s 13 16 mph 1013.3mb 56f 62f
2:04am 3.5ft 5s 9 11 mph 1013.7mb 56f 61f
1:04am 3.5ft 5s 11 13 mph 1014.4mb 57f 61f
12:04am 3.5ft 4s 11 13 mph 1014.8mb 57f 62f
Tue 08/26 11:04pm 3ft 8s 11 13 mph 1015.2mb 57f 61f
10:04pm 2.5ft 4s 13 16 mph 1015.5mb 58f 62f
9:04pm 3.5ft 5s 13 16 mph 1015.8mb 58f 61f
8:04pm 2ft 4s 16 18 mph 1015.9mb 58f 62f
7:04pm 3.5ft 11s 11 13 mph 1016.6mb 59f 62f
6:04pm 3.5ft 8s 11 13 mph 1017mb 59f 62f
5:04pm 3.5ft 8s 9 11 mph 1017.5mb 58f 62f
4:04pm 3.5ft 8s 7 9 mph 1018mb 57f 61f
3:04pm 3.5ft 8s 7
mph
1018.5mb 57f 60f
2:04pm 3ft 8s 7 9 mph 1019mb 56f 60f
1:04pm  -   -  7 9 mph 1019.4mb 56f 60f
12:04pm 2.5ft 8s 9
mph
1019.6mb 56f 60f
11:04am 2.5ft 8s 9
mph
1019.9mb 56f 60f
10:04am 2.5ft 11s 9
mph
1020.3mb 56f 60f
9:04am 2.5ft 8s 7 9 mph 1020.2mb 56f 59f
8:04am 1.6ft 4s 7
mph
1020.1mb 57f 59f
7:04am 2.5ft 8s 4 7 mph 1020mb 56f 60f
6:04am 2.5ft 11s 4 7 mph 1019.8mb 56f 59f
5:04am 2.5ft 8s 7
mph
1019.8mb 57f 59f
4:04am 2.5ft 8s 7
mph
1019.5mb 55f 58f
3:04am 2.5ft 8s 4 7 mph 1019.5mb 55f 58f
2:04am 2.5ft 8s 4 7 mph 1019.3mb 55f 58f
1:04am 2.5ft 8s 9
mph
1019.5mb 55f 60f
12:04am 2.5ft 8s 7 9 mph 1019.5mb 56f 60f
Mon 08/25 11:04pm 3ft 11s 7 9 mph 1019.2mb 56f 60f
10:04pm 3.5ft 11s 7
mph
1019.2mb 56f 60f
9:04pm 3ft 8s 7
mph
1019.3mb 56f 60f
8:04pm 2.5ft 8s 7 9 mph 1019mb 56f 60f
7:04pm 2.5ft 8s 7 9 mph 1018.6mb 56f 60f
6:04pm 2.5ft 8s 9
mph
1018.2mb 56f 61f
5:04pm 2.5ft 8s 9 11 mph 1018.3mb 55f 62f
4:04pm 2.5ft 8s 9
mph
1018.3mb 56f 62f
3:04pm 2.5ft 8s 9 11 mph 1018.4mb 56f 61f
2:04pm 3.5ft 8s 7
mph
1018.8mb 56f 60f
1:04pm 2.5ft 8s 7
mph
1019.1mb 56f 61f
12:04pm 2.5ft 8s 4
mph
1019.3mb 58f 63f
11:04am 2.5ft 8s 4
mph
1019.2mb 55f 60f
10:04am 3ft 8s 2
mph
1019.2mb 55f 60f
9:04am 3ft 8s 2 4 mph 1018.8mb 55f 58f
8:04am 2.5ft 8s 4 7 mph 1018.9mb 56f 58f
7:04am 3ft 8s 4
mph
1018.6mb 56f 59f
6:04am 3ft 11s 4
mph
1018.4mb 55f 58f
5:04am 2.5ft 8s 4
mph
1017.7mb 55f 57f
4:04am 2.5ft 8s 4 7 mph 1017.2mb 55f 58f
3:04am 2.5ft 8s 7
mph
1017.2mb 54f 58f
2:04am 2.5ft 8s 9
mph
1017.4mb 55f 60f
1:04am 2.5ft 8s 11
mph
1017.4mb 55f 61f
12:04am 2.5ft 8s 11 13 mph 1017.4mb 56f 61f
Sun 08/24 11:04pm 2.5ft 8s 11 13 mph 1017.3mb 56f 61f
10:04pm 2.5ft 8s 11 13 mph 1017.2mb 56f 61f
9:04pm 2.5ft 11s 11 13 mph 1017.5mb 55f 60f
8:04pm 2.5ft 8s 9 11 mph 1017.4mb 55f 60f
7:04pm 2ft 8s 9
mph
1017.6mb 55f 60f
6:04pm 2ft 8s 9
mph
1017.5mb 55f 60f
5:04pm 1.6ft 8s 9 11 mph 1017.4mb 55f 60f
4:04pm 1.6ft 8s 9 11 mph 1017.3mb 55f 60f
3:04pm 1.6ft 11s 7 9 mph 1017.4mb 55f 61f
2:04pm 1.6ft 8s 7
mph
1017.9mb 55f 60f
1:04pm 1.6ft 8s 7
mph
1018.1mb 56f 61f
12:04pm 1.6ft 8s 7
mph
1018.3mb 56f 60f
11:04am 1.6ft 8s 7
mph
1018.4mb 56f 60f
10:04am 2ft 8s 2
mph
1018.8mb 56f 58f
9:04am 1.3ft 6s  -  2 mph 1019mb 55f 58f
8:04am 1.6ft 8s 2 4 mph 1019mb 55f 57f
7:04am 1.3ft 8s 2
mph
1019mb 54f 57f